This is the latest recevied weather packets stored in our database for station/object IZ0VWB-3. If no packets are shown the sender has not sent any weather packets the latest 10 day(s).
| Time | Temp. | Humidity | Pressure | Rain* | Wind** | Luminosity | Snow |
|---|---|---|---|---|---|---|---|
| 1777360439 | 17.22° C | 65% | 1003.5 hPa | 0 mm | - | - | - |
| 1777359839 | 17.22° C | 66% | 1003.4 hPa | 0 mm | - | - | - |
| 1777359238 | 17.22° C | 67% | 1003.4 hPa | 0 mm | - | - | - |
| 1777358640 | 16.67° C | 69% | 1003.4 hPa | 0 mm | - | - | - |
| 1777358038 | 15.56° C | 70% | 1003.5 hPa | 0 mm | - | - | - |
| 1777357438 | 16.11° C | 68% | 1003.3 hPa | 0 mm | - | - | - |
| 1777356838 | 15.56° C | 71% | 1003.4 hPa | 0 mm | - | - | - |
| 1777356240 | 15° C | 72% | 1003.3 hPa | 0 mm | - | - | - |
| 1777355638 | 14.44° C | 74% | 1003.4 hPa | 0 mm | - | - | - |
| 1777355039 | 14.44° C | 75% | 1003.4 hPa | 0 mm | - | - | - |
| 1777354440 | 13.33° C | 77% | 1003.3 hPa | 0 mm | - | - | - |
| 1777353839 | 12.78° C | 78% | 1003.4 hPa | 0 mm | - | - | - |
| 1777353239 | 11.67° C | 80% | 1003.3 hPa | 0 mm | - | - | - |
| 1777352640 | 11.11° C | 81% | 1003.2 hPa | 0 mm | - | - | - |
| 1777352039 | 10.56° C | 82% | 1003.1 hPa | 0 mm | - | - | - |
| 1777351438 | 10° C | 82% | 1003 hPa | 0 mm | - | - | - |
| 1777350838 | 9.44° C | 82% | 1003 hPa | 0 mm | - | - | - |
| 1777350237 | 9.44° C | 82% | 1003 hPa | 0 mm | - | - | - |
| 1777349638 | 10° C | 82% | 1003 hPa | 0 mm | - | - | - |
| 1777349039 | 9.44° C | 82% | 1003.1 hPa | 0 mm | - | - | - |
| 1777348438 | 9.44° C | 81% | 1003.1 hPa | 0 mm | - | - | - |
| 1777347838 | 9.44° C | 81% | 1003.1 hPa | 0 mm | - | - | - |
| 1777347238 | 10° C | 81% | 1003.2 hPa | 0 mm | - | - | - |
| 1777346639 | 10° C | 81% | 1003.1 hPa | 0 mm | - | - | - |
| 1777346037 | 10° C | 81% | 1003.2 hPa | 0 mm | - | - | - |
* Rain latest hour (hover to see other rain measurements)
** Current wind speed in m/s (hover to see current wind gust speed)